createdAt,value
2019-05-06T00:02:25.095Z,7.11
2019-05-06T00:04:54.059Z,7.12
2019-05-06T00:07:20.144Z,7.13
2019-05-06T00:09:46.778Z,7.11
2019-05-06T00:12:14.545Z,7.09
2019-05-06T00:14:43.166Z,7.05
2019-05-06T00:17:09.966Z,7.03
2019-05-06T00:19:36.512Z,7.01
2019-05-06T00:22:04.748Z,7.05
2019-05-06T00:24:36.184Z,7.04
2019-05-06T00:27:24.720Z,7.02
2019-05-06T00:29:51.815Z,6.98
2019-05-06T00:32:18.513Z,6.96
2019-05-06T00:34:45.186Z,6.97
2019-05-06T00:37:11.798Z,6.98
2019-05-06T00:39:44.391Z,6.99
2019-05-06T00:42:26.619Z,7.01
2019-05-06T00:44:53.720Z,7.01
2019-05-06T00:47:20.583Z,6.99
2019-05-06T00:49:47.277Z,6.98
2019-05-06T00:52:13.957Z,6.99
2019-05-06T00:54:40.945Z,6.99
2019-05-06T00:57:07.810Z,6.99
2019-05-06T00:59:34.622Z,7.03
2019-05-06T01:02:01.736Z,7.07
2019-05-06T01:04:28.334Z,7.04
2019-05-06T01:06:55.027Z,7.03
2019-05-06T01:09:23.465Z,7.04
2019-05-06T01:11:54.066Z,7.02
2019-05-06T01:14:23.537Z,7.01
2019-05-06T01:16:50.420Z,7.01
2019-05-06T01:19:17.371Z,7.03
2019-05-06T01:21:44.709Z,7.04
2019-05-06T01:24:11.785Z,7.07
2019-05-06T01:26:39.838Z,7.05
2019-05-06T01:29:08.533Z,7.04
2019-05-06T01:31:42.923Z,7.08
2019-05-06T01:34:04.757Z,7.10
2019-05-06T01:36:31.388Z,7.12
2019-05-06T01:39:16.386Z,7.11
2019-05-06T01:41:54.255Z,7.10
2019-05-06T01:44:21.087Z,7.12
2019-05-06T01:46:47.781Z,7.13
2019-05-06T01:49:14.457Z,7.14
2019-05-06T01:51:41.099Z,7.16
2019-05-06T01:54:08.973Z,7.15
2019-05-06T01:56:35.454Z,7.15
2019-05-06T01:59:04.322Z,7.16
2019-05-06T02:01:31.061Z,7.12
2019-05-06T02:03:58.000Z,7.11
2019-05-06T02:06:25.067Z,7.08
2019-05-06T02:08:54.015Z,7.07
2019-05-06T02:11:20.853Z,7.10
2019-05-06T02:13:47.503Z,7.11
2019-05-06T02:16:14.791Z,7.10
2019-05-06T02:18:42.026Z,7.09
2019-05-06T02:21:08.532Z,7.09
2019-05-06T02:23:37.272Z,7.09
2019-05-06T02:26:04.922Z,7.08
2019-05-06T02:28:34.485Z,7.10
2019-05-06T02:31:19.897Z,7.07
2019-05-06T02:33:55.479Z,7.09
2019-05-06T02:36:39.462Z,7.07
2019-05-06T02:39:06.528Z,7.06
2019-05-06T02:41:33.828Z,7.07
2019-05-06T02:44:03.660Z,7.07
2019-05-06T02:46:33.490Z,7.05
2019-05-06T02:49:03.798Z,7.05
2019-05-06T02:51:33.133Z,7.07
2019-05-06T02:53:58.919Z,7.06
2019-05-06T02:56:26.734Z,7.06
2019-05-06T02:58:53.739Z,7.06
2019-05-06T03:01:23.274Z,7.03
2019-05-06T03:03:49.316Z,7.02
2019-05-06T03:06:16.185Z,7.00
2019-05-06T03:08:43.578Z,7.00
2019-05-06T03:11:13.531Z,6.99
2019-05-06T03:13:39.737Z,6.97
2019-05-06T03:16:06.342Z,6.98
2019-05-06T03:18:34.200Z,6.97
2019-05-06T03:21:19.436Z,6.97
2019-05-06T03:23:53.945Z,6.93
2019-05-06T03:26:23.548Z,6.94
2019-05-06T03:28:49.842Z,6.95
2019-05-06T03:31:17.265Z,6.96
2019-05-06T03:34:02.044Z,6.94
2019-05-06T03:36:18.728Z,6.94
2019-05-06T03:38:43.260Z,6.97
2019-05-06T03:41:09.586Z,6.95
2019-05-06T03:43:36.392Z,6.92
2019-05-06T03:46:23.324Z,6.92
2019-05-06T03:48:59.024Z,6.94
2019-05-06T03:51:25.794Z,6.93
2019-05-06T03:53:54.086Z,6.91
2019-05-06T03:56:23.797Z,6.93
2019-05-06T03:58:53.352Z,6.94
2019-05-06T04:01:23.644Z,6.95
2019-05-06T04:03:53.769Z,6.98
2019-05-06T04:06:18.374Z,6.98
2019-05-06T04:08:47.418Z,6.99
2019-05-06T04:11:16.474Z,7.01
2019-05-06T04:13:46.592Z,7.03
2019-05-06T04:16:15.426Z,7.07
2019-05-06T04:19:04.094Z,7.05
2019-05-06T04:21:48.842Z,7.08
2019-05-06T04:24:18.792Z,7.07
2019-05-06T04:26:46.484Z,7.08
2019-05-06T04:29:13.727Z,7.10
2019-05-06T04:31:43.344Z,7.11
2019-05-06T04:34:14.531Z,7.12
2019-05-06T04:36:37.765Z,7.14
2019-05-06T04:39:05.281Z,7.13
2019-05-06T04:41:34.150Z,7.16
2019-05-06T04:44:02.865Z,7.17
2019-05-06T04:46:29.909Z,7.16
2019-05-06T04:48:56.641Z,7.17
2019-05-06T04:51:24.771Z,7.19
2019-05-06T04:53:53.691Z,7.21
2019-05-06T04:56:23.680Z,7.21
2019-05-06T04:58:49.970Z,7.22
2019-05-06T05:01:16.799Z,7.26
2019-05-06T05:03:43.628Z,7.29
2019-05-06T05:06:10.329Z,7.27
2019-05-06T05:08:37.150Z,7.26
2019-05-06T05:11:07.955Z,7.29
2019-05-06T05:13:36.819Z,7.33
2019-05-06T05:16:22.130Z,7.35
2019-05-06T05:18:56.781Z,7.38
2019-05-06T05:21:23.344Z,7.40
2019-05-06T05:23:52.256Z,7.42
2019-05-06T05:26:19.008Z,7.43
2019-05-06T05:28:45.842Z,7.45
2019-05-06T05:31:12.671Z,7.42
2019-05-06T05:33:39.380Z,7.45
2019-05-06T05:36:06.268Z,7.46
2019-05-06T05:38:33.146Z,7.51
2019-05-06T05:41:00.335Z,7.55
2019-05-06T05:43:33.007Z,7.57
2019-05-06T05:45:59.766Z,7.56
2019-05-06T05:48:45.605Z,7.54
2019-05-06T05:51:12.793Z,7.52
2019-05-06T05:53:42.479Z,7.56
2019-05-06T05:56:08.817Z,7.55
2019-05-06T05:58:35.654Z,7.57
2019-05-06T06:01:04.202Z,7.59
2019-05-06T06:03:32.426Z,7.61
2019-05-06T06:05:59.373Z,7.65
2019-05-06T06:08:26.337Z,7.67
2019-05-06T06:10:57.837Z,7.71
2019-05-06T06:13:24.642Z,7.80
2019-05-06T06:15:52.121Z,7.80
2019-05-06T06:18:22.433Z,7.86
2019-05-06T06:20:52.800Z,7.85
2019-05-06T06:23:23.078Z,7.89
2019-05-06T06:25:49.948Z,7.88
2019-05-06T06:28:16.624Z,7.86
2019-05-06T06:31:03.011Z,7.86
2019-05-06T06:33:30.049Z,7.90
2019-05-06T06:36:06.161Z,7.96
2019-05-06T06:38:52.715Z,7.95
2019-05-06T06:41:19.745Z,7.95
2019-05-06T06:43:48.335Z,7.97
2019-05-06T06:46:15.522Z,7.97
2019-05-06T06:48:43.095Z,8.00
2019-05-06T06:51:12.262Z,8.11
2019-05-06T06:53:41.979Z,8.05
2019-05-06T06:56:32.833Z,8.07
2019-05-06T06:59:16.998Z,8.05
2019-05-06T07:02:04.309Z,8.11
2019-05-06T07:04:52.437Z,8.23
2019-05-06T07:07:22.837Z,8.33
2019-05-06T07:09:52.625Z,8.25
2019-05-06T07:12:19.786Z,8.28
2019-05-06T07:14:48.806Z,8.26
2019-05-06T07:17:15.513Z,8.16
2019-05-06T07:19:52.664Z,8.17
2019-05-06T07:22:19.486Z,8.24
2019-05-06T07:24:46.248Z,8.28
2019-05-06T07:27:17.787Z,8.27
2019-05-06T07:29:48.156Z,8.30
2019-05-06T07:32:12.998Z,8.30
2019-05-06T07:34:42.047Z,8.31
2019-05-06T07:37:08.426Z,8.38
2019-05-06T07:39:35.162Z,8.39
2019-05-06T07:42:03.796Z,8.40
2019-05-06T07:44:49.347Z,8.45
2019-05-06T07:47:18.123Z,8.43
2019-05-06T07:49:45.093Z,8.37
2019-05-06T07:52:12.382Z,8.41
2019-05-06T07:54:39.469Z,8.38
2019-05-06T07:57:06.097Z,8.32
2019-05-06T07:59:33.400Z,8.36
2019-05-06T08:02:02.307Z,8.32
2019-05-06T08:04:29.147Z,8.40
2019-05-06T08:06:55.963Z,8.41
2019-05-06T08:09:24.093Z,8.38
2019-05-06T08:11:52.892Z,8.43
2019-05-06T08:14:19.799Z,8.44
2019-05-06T08:16:54.302Z,8.44
2019-05-06T08:19:22.732Z,8.44
2019-05-06T08:21:52.166Z,8.49
2019-05-06T08:24:20.082Z,8.49
2019-05-06T08:26:46.844Z,8.46
2019-05-06T08:29:15.923Z,8.44
2019-05-06T08:31:43.058Z,8.49
2019-05-06T08:34:12.137Z,8.54
2019-05-06T08:36:42.642Z,8.61
2019-05-06T08:39:09.994Z,8.60
2019-05-06T08:41:36.743Z,8.62
2019-05-06T08:44:03.737Z,8.70
2019-05-06T08:46:32.695Z,8.79
2019-05-06T08:49:03.046Z,8.72
2019-05-06T08:51:35.438Z,8.73
2019-05-06T08:54:19.780Z,8.74
2019-05-06T08:56:46.639Z,8.68
2019-05-06T08:59:14.047Z,8.70
2019-05-06T09:01:45.736Z,8.66
2019-05-06T09:04:15.913Z,8.77
2019-05-06T09:06:43.138Z,8.81
2019-05-06T09:09:12.797Z,8.84
2019-05-06T09:11:39.328Z,8.89
2019-05-06T09:14:09.695Z,8.91
2019-05-06T09:16:35.564Z,8.91
2019-05-06T09:19:04.461Z,8.85
2019-05-06T09:21:33.530Z,8.81
2019-05-06T09:24:02.271Z,8.70
2019-05-06T09:26:40.051Z,8.83
2019-05-06T09:29:12.812Z,8.77
2019-05-06T09:31:42.726Z,8.66
2019-05-06T09:34:13.053Z,8.63
2019-05-06T09:36:51.326Z,8.72
2019-05-06T09:39:13.000Z,8.67
2019-05-06T09:41:39.868Z,8.62
2019-05-06T09:44:06.875Z,8.76
2019-05-06T09:46:33.548Z,8.75
2019-05-06T09:49:03.313Z,8.77
2019-05-06T09:51:32.359Z,8.88
2019-05-06T09:54:03.790Z,8.90
2019-05-06T09:56:33.467Z,8.94
2019-05-06T09:59:02.226Z,8.94
2019-05-06T10:01:29.199Z,8.93
2019-05-06T10:03:56.088Z,8.90
2019-05-06T10:06:22.954Z,8.97
2019-05-06T10:08:49.752Z,9.04
2019-05-06T10:11:16.372Z,9.04
2019-05-06T10:13:45.201Z,9.01
2019-05-06T10:16:12.998Z,9.04
2019-05-06T10:18:39.988Z,9.03
2019-05-06T10:21:07.285Z,9.15
2019-05-06T10:23:34.079Z,9.02
2019-05-06T10:26:04.279Z,8.93
2019-05-06T10:28:34.195Z,8.96
2019-05-06T10:31:02.138Z,9.03
2019-05-06T10:33:33.175Z,9.07
2019-05-06T10:36:03.783Z,8.91
2019-05-06T10:38:55.918Z,9.01
2019-05-06T10:41:32.809Z,8.94
2019-05-06T10:44:42.843Z,8.94
2019-05-06T10:47:08.890Z,8.85
2019-05-06T10:49:36.812Z,8.91
2019-05-06T10:52:17.235Z,8.88
2019-05-06T10:54:43.677Z,8.88
2019-05-06T10:57:12.607Z,8.93
2019-05-06T10:59:39.571Z,9.01
2019-05-06T11:02:06.532Z,9.06
2019-05-06T11:04:33.290Z,9.10
2019-05-06T11:07:00.103Z,9.16
2019-05-06T11:09:26.835Z,9.24
2019-05-06T11:11:55.819Z,9.34
2019-05-06T11:14:22.880Z,9.29
2019-05-06T11:16:50.227Z,9.34
2019-05-06T11:19:16.771Z,9.37
2019-05-06T11:21:45.359Z,9.45
2019-05-06T11:24:12.403Z,9.44
2019-05-06T11:26:39.422Z,9.43
2019-05-06T11:29:13.873Z,9.50
2019-05-06T11:32:02.389Z,9.60
2019-05-06T11:34:43.130Z,9.69
2019-05-06T11:37:22.978Z,9.82
2019-05-06T11:39:49.498Z,9.91
2019-05-06T11:42:27.546Z,9.97
2019-05-06T11:44:45.046Z,10.05
2019-05-06T11:47:12.473Z,10.13
2019-05-06T11:49:39.444Z,10.14
2019-05-06T11:52:06.150Z,10.18
2019-05-06T11:54:33.759Z,10.17
2019-05-06T11:57:02.910Z,10.10
2019-05-06T11:59:30.231Z,10.23
2019-05-06T12:02:04.923Z,10.29
2019-05-06T12:04:32.916Z,10.31
2019-05-06T12:07:10.229Z,10.31
2019-05-06T12:09:33.059Z,10.29
2019-05-06T12:12:03.066Z,10.38
2019-05-06T12:14:29.451Z,10.37
2019-05-06T12:16:56.211Z,10.37
2019-05-06T12:19:23.000Z,10.44
2019-05-06T12:21:49.841Z,10.46
2019-05-06T12:24:16.575Z,10.33
2019-05-06T12:26:43.224Z,10.40
2019-05-06T12:29:09.879Z,10.41
2019-05-06T12:31:36.721Z,10.22
2019-05-06T12:34:03.650Z,10.13
2019-05-06T12:36:32.301Z,10.16
2019-05-06T12:39:17.588Z,10.23
2019-05-06T12:41:45.109Z,10.30
2019-05-06T12:44:13.092Z,10.32
2019-05-06T12:46:46.007Z,10.38
2019-05-06T12:49:12.936Z,10.42
2019-05-06T12:51:39.741Z,10.46
2019-05-06T12:54:06.522Z,10.43
2019-05-06T12:56:33.129Z,10.49
2019-05-06T12:59:02.089Z,10.41
2019-05-06T13:01:29.774Z,10.44
2019-05-06T13:03:57.720Z,10.46
2019-05-06T13:06:26.570Z,10.52
2019-05-06T13:09:01.121Z,10.57
2019-05-06T13:11:22.115Z,10.63
2019-05-06T13:13:57.476Z,10.69
2019-05-06T13:16:19.288Z,10.64
2019-05-06T13:18:51.416Z,10.64
2019-05-06T13:21:16.187Z,10.56
2019-05-06T13:23:45.036Z,10.61
2019-05-06T13:26:12.831Z,10.74
2019-05-06T13:28:42.659Z,10.72
2019-05-06T13:31:17.324Z,10.83
2019-05-06T13:33:54.507Z,10.90
2019-05-06T13:36:22.595Z,10.94
2019-05-06T13:38:52.191Z,11.00
2019-05-06T13:41:18.416Z,11.02
2019-05-06T13:43:49.701Z,11.07
2019-05-06T13:46:18.251Z,11.09
2019-05-06T13:48:47.123Z,11.14
2019-05-06T13:51:27.958Z,11.20
2019-05-06T13:53:54.966Z,11.15
2019-05-06T13:56:21.693Z,11.17
2019-05-06T13:58:48.444Z,11.17
2019-05-06T14:01:16.983Z,11.13
2019-05-06T14:03:43.707Z,11.09
2019-05-06T14:06:12.270Z,11.02
2019-05-06T14:08:39.187Z,10.99
2019-05-06T14:11:05.958Z,10.99
2019-05-06T14:13:34.108Z,11.03
2019-05-06T14:16:00.720Z,10.91
2019-05-06T14:18:27.527Z,10.97
2019-05-06T14:20:55.954Z,10.94
2019-05-06T14:23:22.913Z,10.94
2019-05-06T14:26:08.212Z,10.93
2019-05-06T14:28:34.881Z,10.92
2019-05-06T14:31:03.440Z,10.89
2019-05-06T14:33:32.160Z,10.87
2019-05-06T14:35:58.774Z,10.96
2019-05-06T14:38:25.494Z,11.00
2019-05-06T14:41:08.071Z,11.08
2019-05-06T14:43:35.011Z,11.11
2019-05-06T14:46:02.028Z,11.09
2019-05-06T14:48:29.063Z,11.10
2019-05-06T14:50:57.335Z,11.10
2019-05-06T14:53:24.411Z,11.11
2019-05-06T14:55:52.989Z,11.08
2019-05-06T14:58:20.102Z,11.08
2019-05-06T15:00:46.556Z,11.08
2019-05-06T15:03:14.474Z,11.03
2019-05-06T15:05:42.751Z,10.96
2019-05-06T15:08:09.407Z,10.96
2019-05-06T15:10:35.978Z,10.99
2019-05-06T15:13:02.920Z,10.97
2019-05-06T15:15:29.738Z,10.95
2019-05-06T15:17:56.511Z,10.95
2019-05-06T15:20:23.690Z,10.94
2019-05-06T15:22:52.748Z,10.89
2019-05-06T15:25:19.235Z,10.90
2019-05-06T15:27:45.925Z,10.85
2019-05-06T15:30:15.669Z,10.83
2019-05-06T15:32:42.665Z,10.86
2019-05-06T15:35:17.653Z,10.87
2019-05-06T15:37:46.187Z,10.84
2019-05-06T15:40:13.867Z,10.83
2019-05-06T15:42:42.515Z,10.83
2019-05-06T15:45:09.748Z,10.81
2019-05-06T15:47:36.523Z,10.82
2019-05-06T15:50:04.213Z,10.83
2019-05-06T15:52:32.467Z,10.85
2019-05-06T15:54:59.607Z,10.81
2019-05-06T15:57:26.240Z,10.82
2019-05-06T15:59:53.271Z,10.82
2019-05-06T16:02:20.235Z,10.83
2019-05-06T16:04:47.000Z,10.83
2019-05-06T16:07:15.276Z,10.80
2019-05-06T16:09:42.885Z,10.79
2019-05-06T16:12:12.616Z,10.80
2019-05-06T16:14:42.494Z,10.75
2019-05-06T16:17:09.215Z,10.77
2019-05-06T16:19:35.875Z,10.70
2019-05-06T16:22:04.090Z,10.76
2019-05-06T16:24:35.159Z,10.72
2019-05-06T16:27:03.111Z,10.70
2019-05-06T16:29:35.845Z,10.71
2019-05-06T16:32:04.759Z,10.71
2019-05-06T16:34:32.344Z,10.70
2019-05-06T16:37:01.904Z,10.70
2019-05-06T16:39:28.964Z,10.70
2019-05-06T16:41:55.908Z,10.68
2019-05-06T16:44:22.863Z,10.67
2019-05-06T16:46:52.103Z,10.61
2019-05-06T16:49:19.082Z,10.61
2019-05-06T16:51:47.128Z,10.56
2019-05-06T16:54:13.755Z,10.57
2019-05-06T16:56:46.185Z,10.55
2019-05-06T16:59:13.077Z,10.53
2019-05-06T17:01:42.615Z,10.48
2019-05-06T17:04:17.330Z,10.45
2019-05-06T17:06:46.011Z,10.43
2019-05-06T17:09:20.729Z,10.40
2019-05-06T17:11:42.687Z,10.39
2019-05-06T17:14:12.121Z,10.36
2019-05-06T17:16:38.200Z,10.34
2019-05-06T17:19:06.087Z,10.32
2019-05-06T17:21:33.349Z,10.29
2019-05-06T17:24:02.193Z,10.27
2019-05-06T17:26:28.797Z,10.25
2019-05-06T17:29:10.547Z,10.24
2019-05-06T17:31:39.907Z,10.22
2019-05-06T17:34:17.568Z,10.21
2019-05-06T17:36:44.042Z,10.22
2019-05-06T17:39:11.633Z,10.21
2019-05-06T17:41:46.024Z,10.18
2019-05-06T17:44:11.978Z,10.17
2019-05-06T17:46:43.422Z,10.13
2019-05-06T17:49:14.918Z,10.12
2019-05-06T17:51:43.780Z,10.11
2019-05-06T17:54:12.450Z,10.10
2019-05-06T17:56:41.921Z,10.08
2019-05-06T17:59:08.888Z,10.07
2019-05-06T18:01:37.605Z,10.06
2019-05-06T18:04:04.689Z,10.06
2019-05-06T18:06:33.029Z,10.05
2019-05-06T18:09:05.167Z,10.04
2019-05-06T18:11:33.183Z,10.03
2019-05-06T18:14:00.509Z,10.03
2019-05-06T18:16:27.383Z,10.02
2019-05-06T18:18:54.322Z,9.97
2019-05-06T18:21:23.024Z,9.94
2019-05-06T18:23:52.139Z,9.91
2019-05-06T18:26:18.475Z,9.91
2019-05-06T18:28:45.194Z,9.89
2019-05-06T18:31:12.562Z,9.89
2019-05-06T18:33:43.094Z,9.90
2019-05-06T18:36:10.327Z,9.90
2019-05-06T18:38:38.867Z,9.88
2019-05-06T18:41:05.427Z,9.90
2019-05-06T18:43:33.296Z,9.88
2019-05-06T18:46:02.744Z,9.86
2019-05-06T18:48:31.618Z,9.86
2019-05-06T18:50:57.898Z,9.86
2019-05-06T18:53:28.155Z,9.87
2019-05-06T18:55:56.580Z,9.84
2019-05-06T18:58:23.438Z,9.82
2019-05-06T19:00:50.211Z,9.83
2019-05-06T19:03:16.940Z,9.83
2019-05-06T19:05:45.300Z,9.87
2019-05-06T19:08:29.694Z,9.89
2019-05-06T19:10:56.692Z,9.90
2019-05-06T19:13:24.812Z,9.95
2019-05-06T19:15:52.658Z,9.99
2019-05-06T19:18:22.498Z,10.01
2019-05-06T19:20:50.332Z,10.03
2019-05-06T19:23:17.178Z,10.04
2019-05-06T19:25:45.432Z,10.06
2019-05-06T19:28:14.143Z,10.08
2019-05-06T19:30:41.963Z,10.05
2019-05-06T19:33:08.643Z,10.06
2019-05-06T19:35:37.108Z,10.02
2019-05-06T19:38:05.245Z,10.00
2019-05-06T19:40:32.507Z,9.99
2019-05-06T19:42:59.384Z,9.95
2019-05-06T19:45:26.211Z,9.94
2019-05-06T19:47:52.821Z,9.91
2019-05-06T19:50:23.529Z,9.90
2019-05-06T19:52:48.343Z,9.88
2019-05-06T19:55:16.426Z,9.83
2019-05-06T19:57:43.243Z,9.79
2019-05-06T20:00:10.719Z,9.76
2019-05-06T20:02:37.534Z,9.73
2019-05-06T20:05:17.294Z,9.71
2019-05-06T20:07:49.175Z,9.74
2019-05-06T20:10:17.959Z,9.78
2019-05-06T20:12:59.430Z,9.80
2019-05-06T20:15:32.468Z,9.81
2019-05-06T20:17:59.218Z,9.82
2019-05-06T20:20:25.971Z,9.86
2019-05-06T20:22:52.670Z,9.86
2019-05-06T20:25:19.540Z,9.87
2019-05-06T20:27:46.114Z,9.85
2019-05-06T20:30:13.712Z,9.84
2019-05-06T20:32:42.509Z,9.83
2019-05-06T20:35:09.616Z,9.80
2019-05-06T20:37:36.543Z,9.80
2019-05-06T20:40:04.534Z,9.78
2019-05-06T20:42:32.734Z,9.78
2019-05-06T20:44:59.564Z,9.76
2019-05-06T20:47:26.360Z,9.75
2019-05-06T20:49:53.100Z,9.75
2019-05-06T20:52:20.261Z,9.75
2019-05-06T20:54:47.138Z,9.74
2019-05-06T20:57:13.922Z,9.73
2019-05-06T20:59:41.957Z,9.71
2019-05-06T21:02:09.138Z,9.70
2019-05-06T21:04:35.959Z,9.70
2019-05-06T21:07:03.186Z,9.63
2019-05-06T21:09:31.998Z,9.64
2019-05-06T21:11:58.740Z,9.59
2019-05-06T21:14:25.817Z,9.60
2019-05-06T21:16:52.527Z,9.59
2019-05-06T21:19:19.085Z,9.58
2019-05-06T21:21:45.930Z,9.57
2019-05-06T21:24:13.116Z,9.47
2019-05-06T21:26:42.306Z,9.49
2019-05-06T21:29:08.627Z,9.46
2019-05-06T21:31:35.311Z,9.45
2019-05-06T21:34:02.032Z,9.43
2019-05-06T21:36:28.748Z,9.43
2019-05-06T21:38:55.444Z,9.41
2019-05-06T21:41:23.157Z,9.39
2019-05-06T21:43:50.400Z,9.39
2019-05-06T21:46:17.795Z,9.40
2019-05-06T21:48:44.523Z,9.39
2019-05-06T21:51:12.892Z,9.37
2019-05-06T21:53:39.806Z,9.35
2019-05-06T21:56:07.575Z,9.33
2019-05-06T21:58:35.782Z,9.33
2019-05-06T22:01:04.959Z,9.33
2019-05-06T22:03:32.750Z,9.34
2019-05-06T22:06:02.074Z,9.33
2019-05-06T22:08:30.149Z,9.30
2019-05-06T22:11:00.240Z,9.30
2019-05-06T22:13:27.192Z,9.30
2019-05-06T22:15:54.473Z,9.26
2019-05-06T22:18:22.893Z,9.27
2019-05-06T22:21:07.901Z,9.25
2019-05-06T22:23:49.877Z,9.25
2019-05-06T22:26:16.818Z,9.23
2019-05-06T22:28:43.595Z,9.23
2019-05-06T22:31:10.335Z,9.24
2019-05-06T22:33:38.661Z,9.23
2019-05-06T22:36:06.866Z,9.22
2019-05-06T22:38:33.522Z,9.22
2019-05-06T22:41:02.328Z,9.20
2019-05-06T22:43:28.906Z,9.20
2019-05-06T22:45:55.829Z,9.18
2019-05-06T22:48:22.341Z,9.17
2019-05-06T22:50:49.014Z,9.17
2019-05-06T22:53:17.297Z,9.13
2019-05-06T22:55:44.054Z,9.12
2019-05-06T22:58:11.975Z,9.11
2019-05-06T23:00:42.528Z,9.10
2019-05-06T23:03:12.330Z,9.11
2019-05-06T23:05:39.185Z,9.08
2019-05-06T23:08:05.971Z,9.06
2019-05-06T23:10:33.652Z,9.04
2019-05-06T23:13:02.977Z,9.03
2019-05-06T23:15:29.373Z,9.01
2019-05-06T23:17:55.954Z,9.01
2019-05-06T23:20:24.471Z,9.01
2019-05-06T23:22:51.317Z,8.98
2019-05-06T23:25:18.222Z,8.94
2019-05-06T23:27:44.857Z,8.92
2019-05-06T23:30:12.749Z,8.91
2019-05-06T23:32:39.684Z,8.90
2019-05-06T23:35:06.616Z,8.87
2019-05-06T23:38:29.373Z,8.86
2019-05-06T23:41:52.917Z,8.84
2019-05-06T23:45:15.964Z,8.84
2019-05-06T23:48:38.971Z,8.77
2019-05-06T23:52:02.833Z,8.73
2019-05-06T23:55:25.615Z,8.69
2019-05-06T23:57:52.621Z,8.64
